createdAt,value
2019-05-03T00:02:34.458Z,2.70
2019-05-03T00:05:05.459Z,2.45
2019-05-03T00:07:34.791Z,2.62
2019-05-03T00:10:04.455Z,2.30
2019-05-03T00:12:33.764Z,2.30
2019-05-03T00:15:08.843Z,2.58
2019-05-03T00:17:38.258Z,2.55
2019-05-03T00:20:07.706Z,2.83
2019-05-03T00:22:37.780Z,2.17
2019-05-03T00:25:08.479Z,2.40
2019-05-03T00:27:37.273Z,2.33
2019-05-03T00:30:07.876Z,2.87
2019-05-03T00:32:37.446Z,2.83
2019-05-03T00:35:17.294Z,2.78
2019-05-03T00:37:47.472Z,2.55
2019-05-03T00:40:18.156Z,2.50
2019-05-03T00:42:47.434Z,2.85
2019-05-03T00:45:16.740Z,2.55
2019-05-03T00:47:47.165Z,2.60
2019-05-03T00:50:16.054Z,2.80
2019-05-03T00:52:46.430Z,2.83
2019-05-03T00:55:18.762Z,3.20
2019-05-03T00:57:45.998Z,3.50
2019-05-03T01:00:15.317Z,2.78
2019-05-03T01:02:44.721Z,2.87
2019-05-03T01:05:14.579Z,3.03
2019-05-03T01:07:43.798Z,2.80
2019-05-03T01:10:13.312Z,2.95
2019-05-03T01:12:42.861Z,3.08
2019-05-03T01:15:12.467Z,3.00
2019-05-03T01:17:42.050Z,4.20
2019-05-03T01:20:11.956Z,3.45
2019-05-03T01:22:42.494Z,2.90
2019-05-03T01:25:12.095Z,3.35
2019-05-03T01:27:42.688Z,2.62
2019-05-03T01:30:11.946Z,2.75
2019-05-03T01:32:41.817Z,2.72
2019-05-03T01:35:12.306Z,2.83
2019-05-03T01:37:42.507Z,2.62
2019-05-03T01:40:12.526Z,2.67
2019-05-03T01:42:42.642Z,2.50
2019-05-03T01:45:12.068Z,2.53
2019-05-03T01:47:45.194Z,2.37
2019-05-03T01:50:19.647Z,2.60
2019-05-03T01:52:50.064Z,2.50
2019-05-03T01:55:19.788Z,2.60
2019-05-03T01:57:49.798Z,2.47
2019-05-03T02:00:23.189Z,2.70
2019-05-03T02:02:53.203Z,2.92
2019-05-03T02:08:19.560Z,2.90
2019-05-03T02:10:51.649Z,2.92
2019-05-03T02:13:19.998Z,2.75
2019-05-03T02:15:49.606Z,3.03
2019-05-03T02:18:19.005Z,3.28
2019-05-03T02:20:48.638Z,2.67
2019-05-03T02:23:18.055Z,2.80
2019-05-03T02:25:55.930Z,2.70
2019-05-03T02:28:17.960Z,3.15
2019-05-03T02:30:47.662Z,2.90
2019-05-03T02:33:17.273Z,2.62
2019-05-03T02:35:46.880Z,2.72
2019-05-03T02:38:16.493Z,2.78
2019-05-03T02:40:46.231Z,2.95
2019-05-03T02:43:16.693Z,3.20
2019-05-03T02:45:51.768Z,3.05
2019-05-03T02:51:20.244Z,3.20
2019-05-03T02:53:49.519Z,3.50
2019-05-03T02:56:22.463Z,3.22
2019-05-03T02:58:48.989Z,3.00
2019-05-03T03:01:18.901Z,3.12
2019-05-03T03:03:48.390Z,3.40
2019-05-03T03:06:18.260Z,3.28
2019-05-03T03:08:48.852Z,3.40
2019-05-03T03:11:18.474Z,3.10
2019-05-03T03:13:49.387Z,12.05
2019-05-03T03:16:20.832Z,4.00
2019-05-03T03:18:49.434Z,2.95
2019-05-03T03:21:19.637Z,3.10
2019-05-03T03:24:01.900Z,3.70
2019-05-03T03:26:39.255Z,3.42
2019-05-03T03:29:05.312Z,3.42
2019-05-03T03:31:48.582Z,3.10
2019-05-03T03:34:18.679Z,2.83
2019-05-03T03:37:03.573Z,2.75
2019-05-03T03:39:21.183Z,2.70
2019-05-03T03:41:51.226Z,3.23
2019-05-03T03:44:21.113Z,2.75
2019-05-03T03:46:50.561Z,4.20
2019-05-03T03:49:20.758Z,9.00
2019-05-03T03:51:51.496Z,4.25
2019-05-03T03:54:21.568Z,3.10
2019-05-03T03:56:59.373Z,3.53
2019-05-03T03:59:26.663Z,3.08
2019-05-03T04:01:55.323Z,2.80
2019-05-03T04:04:26.012Z,5.60
2019-05-03T04:06:58.600Z,6.97
2019-05-03T04:09:25.521Z,2.97
2019-05-03T04:11:56.437Z,2.70
2019-05-03T04:14:25.395Z,2.67
2019-05-03T04:17:05.958Z,2.70
2019-05-03T04:19:36.458Z,3.20
2019-05-03T04:22:05.854Z,4.40
2019-05-03T04:24:35.616Z,8.45
2019-05-03T04:27:15.642Z,8.17
2019-05-03T04:29:37.405Z,3.45
2019-05-03T04:32:08.578Z,2.47
2019-05-03T04:34:39.187Z,3.07
2019-05-03T04:37:08.808Z,3.00
2019-05-03T04:39:38.523Z,3.37
2019-05-03T04:42:08.220Z,5.32
2019-05-03T04:44:37.800Z,3.23
2019-05-03T04:47:07.310Z,3.93
2019-05-03T04:49:37.688Z,6.13
2019-05-03T04:52:07.263Z,5.30
2019-05-03T04:54:36.876Z,3.00
2019-05-03T04:57:06.782Z,3.00
2019-05-03T04:59:36.599Z,7.67
2019-05-03T05:02:06.259Z,5.80
2019-05-03T05:04:36.311Z,3.60
2019-05-03T05:07:06.227Z,3.65
2019-05-03T05:09:35.786Z,2.90
2019-05-03T05:12:05.850Z,2.83
2019-05-03T05:14:35.587Z,3.07
2019-05-03T05:17:06.141Z,2.60
2019-05-03T05:22:31.996Z,3.07
2019-05-03T05:25:04.364Z,2.75
2019-05-03T05:27:34.643Z,2.70
2019-05-03T05:30:04.584Z,3.00
2019-05-03T05:32:34.959Z,3.00
2019-05-03T05:35:05.165Z,2.73
2019-05-03T05:37:35.125Z,3.20
2019-05-03T05:40:05.192Z,3.30
2019-05-03T05:42:35.036Z,3.33
2019-05-03T05:45:04.918Z,2.90
2019-05-03T05:47:35.309Z,2.73
2019-05-03T05:50:06.122Z,3.20
2019-05-03T05:52:35.219Z,3.13
2019-05-03T05:55:07.869Z,2.83
2019-05-03T05:57:38.505Z,2.83
2019-05-03T06:00:25.664Z,3.10
2019-05-03T06:02:55.141Z,3.67
2019-05-03T06:05:25.196Z,3.23
2019-05-03T06:07:55.198Z,3.37
2019-05-03T06:10:30.507Z,3.37
2019-05-03T06:13:05.543Z,3.67
2019-05-03T06:15:54.703Z,3.40
2019-05-03T06:18:25.114Z,3.53
2019-05-03T06:21:00.060Z,3.30
2019-05-03T06:23:29.671Z,3.73
2019-05-03T06:25:59.683Z,3.27
2019-05-03T06:28:29.725Z,3.30
2019-05-03T06:31:15.449Z,3.30
2019-05-03T06:33:45.110Z,3.20
2019-05-03T06:36:15.266Z,3.33
2019-05-03T06:38:45.274Z,3.30
2019-05-03T06:41:15.147Z,3.13
2019-05-03T06:43:48.512Z,3.17
2019-05-03T06:46:18.163Z,3.40
2019-05-03T06:48:44.889Z,2.70
2019-05-03T06:51:17.827Z,3.00
2019-05-03T06:53:48.937Z,3.23
2019-05-03T06:56:14.938Z,2.50
2019-05-03T06:58:44.869Z,3.43
2019-05-03T07:01:18.182Z,3.10
2019-05-03T07:03:48.910Z,3.10
2019-05-03T07:06:37.447Z,2.97
2019-05-03T07:08:59.998Z,3.00
2019-05-03T07:11:30.341Z,2.80
2019-05-03T07:13:59.826Z,2.63
2019-05-03T07:16:29.427Z,2.70
2019-05-03T07:18:58.744Z,2.60
2019-05-03T07:21:28.155Z,2.90
2019-05-03T07:23:57.661Z,2.70
2019-05-03T07:26:27.257Z,2.40
2019-05-03T07:28:57.670Z,2.80
2019-05-03T07:31:27.190Z,2.67
2019-05-03T07:33:56.782Z,2.83
2019-05-03T07:36:28.369Z,2.70
2019-05-03T07:38:56.517Z,2.50
2019-05-03T07:41:27.256Z,2.70
2019-05-03T07:43:56.029Z,2.77
2019-05-03T07:46:26.362Z,2.47
2019-05-03T07:48:55.534Z,2.43
2019-05-03T07:51:25.990Z,2.83
2019-05-03T07:53:55.690Z,2.60
2019-05-03T07:56:29.096Z,2.70
2019-05-03T07:59:03.167Z,2.43
2019-05-03T08:01:30.776Z,2.87
2019-05-03T08:04:00.215Z,2.70
2019-05-03T08:06:29.774Z,2.60
2019-05-03T08:08:59.267Z,2.47
2019-05-03T08:11:28.670Z,2.40
2019-05-03T08:13:58.185Z,2.37
2019-05-03T08:16:27.892Z,2.73
2019-05-03T08:18:57.303Z,2.70
2019-05-03T08:21:26.677Z,2.60
2019-05-03T08:23:56.420Z,2.40
2019-05-03T08:26:25.899Z,2.60
2019-05-03T08:28:55.721Z,2.80
2019-05-03T08:31:32.528Z,2.43
2019-05-03T08:34:04.817Z,3.03
2019-05-03T08:39:27.660Z,3.13
2019-05-03T08:41:58.679Z,2.80
2019-05-03T08:44:28.088Z,2.50
2019-05-03T08:46:58.030Z,2.70
2019-05-03T08:49:27.630Z,3.00
2019-05-03T08:51:56.900Z,2.53
2019-05-03T08:54:27.054Z,2.60
2019-05-03T08:56:56.734Z,2.70
2019-05-03T08:59:32.195Z,2.67
2019-05-03T09:01:56.762Z,2.63
2019-05-03T09:04:36.141Z,2.60
2019-05-03T09:06:56.080Z,2.63
2019-05-03T09:09:34.902Z,2.60
2019-05-03T09:12:04.792Z,2.70
2019-05-03T09:14:42.605Z,2.30
2019-05-03T09:17:04.938Z,2.30
2019-05-03T09:19:34.727Z,2.53
2019-05-03T09:22:05.979Z,2.20
2019-05-03T09:24:35.164Z,2.57
2019-05-03T09:27:05.104Z,2.43
2019-05-03T09:29:41.071Z,2.60
2019-05-03T09:32:05.203Z,1.93
2019-05-03T09:34:35.161Z,2.07
2019-05-03T09:37:04.791Z,2.07
2019-05-03T09:39:35.477Z,2.60
2019-05-03T09:42:04.712Z,2.10
2019-05-03T09:44:35.023Z,2.30
2019-05-03T09:47:05.595Z,2.37
2019-05-03T09:49:34.787Z,2.10
2019-05-03T09:52:08.005Z,2.00
2019-05-03T09:54:34.813Z,2.33
2019-05-03T09:57:05.875Z,1.93
2019-05-03T09:59:35.018Z,2.30
2019-05-03T10:02:05.018Z,2.20
2019-05-03T10:04:36.361Z,2.30
2019-05-03T10:07:04.470Z,2.30
2019-05-03T10:09:35.415Z,1.80
2019-05-03T10:12:05.478Z,2.27
2019-05-03T10:14:33.944Z,2.20
2019-05-03T10:17:05.500Z,2.00
2019-05-03T10:19:39.973Z,2.10
2019-05-03T10:22:05.898Z,2.30
2019-05-03T10:24:35.099Z,2.23
2019-05-03T10:27:05.631Z,2.00
2019-05-03T10:29:34.067Z,2.10
2019-05-03T10:32:06.494Z,1.90
2019-05-03T10:34:35.822Z,1.97
2019-05-03T10:37:06.832Z,2.00
2019-05-03T10:39:37.039Z,1.87
2019-05-03T10:42:06.363Z,2.23
2019-05-03T10:44:36.779Z,1.90
2019-05-03T10:47:06.407Z,1.90
2019-05-03T10:49:35.977Z,1.90
2019-05-03T10:52:05.701Z,1.80
2019-05-03T10:54:35.854Z,1.70
2019-05-03T10:57:12.395Z,1.93
2019-05-03T10:59:41.898Z,1.70
2019-05-03T11:02:12.331Z,1.70
2019-05-03T11:04:43.677Z,1.80
2019-05-03T11:07:11.848Z,1.70
2019-05-03T11:09:49.818Z,1.70
2019-05-03T11:12:11.160Z,1.60
2019-05-03T11:14:40.475Z,1.90
2019-05-03T11:17:10.067Z,1.87
2019-05-03T11:19:39.464Z,1.70
2019-05-03T11:22:09.298Z,1.53
2019-05-03T11:24:39.706Z,1.77
2019-05-03T11:27:11.260Z,1.70
2019-05-03T11:29:40.561Z,1.90
2019-05-03T11:32:14.858Z,1.70
2019-05-03T11:34:48.285Z,1.60
2019-05-03T11:40:15.693Z,2.10
2019-05-03T11:42:44.782Z,1.60
2019-05-03T11:45:15.238Z,1.70
2019-05-03T11:47:45.713Z,1.87
2019-05-03T11:50:14.905Z,1.73
2019-05-03T11:52:46.857Z,1.60
2019-05-03T11:55:15.997Z,1.80
2019-05-03T11:57:45.184Z,1.50
2019-05-03T12:00:14.982Z,1.57
2019-05-03T12:02:44.878Z,1.50
2019-05-03T12:05:30.497Z,1.63
2019-05-03T12:08:00.253Z,1.60
2019-05-03T12:10:46.002Z,1.70
2019-05-03T12:12:59.710Z,1.60
2019-05-03T12:15:29.454Z,1.57
2019-05-03T12:18:02.355Z,1.77
2019-05-03T12:20:32.793Z,1.60
2019-05-03T12:23:02.286Z,1.73
2019-05-03T12:25:32.014Z,1.57
2019-05-03T12:28:01.930Z,1.50
2019-05-03T12:30:31.357Z,1.80
2019-05-03T12:33:00.844Z,1.73
2019-05-03T12:35:30.456Z,1.83
2019-05-03T12:37:59.863Z,1.90
2019-05-03T12:40:29.354Z,1.33
2019-05-03T12:42:58.887Z,1.77
2019-05-03T12:45:29.324Z,1.60
2019-05-03T12:47:59.839Z,1.70
2019-05-03T12:50:29.338Z,1.60
2019-05-03T12:52:58.623Z,2.20
2019-05-03T12:55:28.235Z,2.00
2019-05-03T12:57:57.640Z,1.80
2019-05-03T13:00:30.214Z,2.10
2019-05-03T13:03:05.164Z,1.90
2019-05-03T13:05:35.621Z,1.97
2019-05-03T13:08:20.239Z,2.17
2019-05-03T13:10:49.927Z,2.30
2019-05-03T13:13:19.546Z,2.10
2019-05-03T13:15:49.064Z,2.20
2019-05-03T13:18:18.466Z,2.10
2019-05-03T13:20:47.870Z,2.30
2019-05-03T13:23:17.279Z,2.10
2019-05-03T13:25:46.750Z,2.37
2019-05-03T13:28:16.187Z,2.40
2019-05-03T13:30:45.904Z,2.03
2019-05-03T13:33:15.385Z,2.20
2019-05-03T13:35:44.989Z,2.00
2019-05-03T13:38:14.273Z,1.70
2019-05-03T13:40:45.195Z,1.80
2019-05-03T13:43:14.998Z,1.83
2019-05-03T13:45:45.063Z,2.10
2019-05-03T13:48:15.539Z,1.63
2019-05-03T13:50:44.640Z,1.83
2019-05-03T13:53:13.602Z,2.03
2019-05-03T13:55:44.539Z,1.80
2019-05-03T13:58:14.636Z,2.20
2019-05-03T14:00:45.159Z,1.87
2019-05-03T14:03:12.732Z,1.70
2019-05-03T14:05:41.916Z,1.60
2019-05-03T14:08:11.581Z,2.27
2019-05-03T14:10:41.236Z,1.70
2019-05-03T14:13:10.984Z,1.70
2019-05-03T14:15:40.455Z,1.90
2019-05-03T14:18:09.751Z,1.50
2019-05-03T14:20:43.296Z,1.80
2019-05-03T14:23:14.888Z,1.63
2019-05-03T14:25:44.653Z,1.60
2019-05-03T14:28:14.578Z,2.27
2019-05-03T14:30:45.362Z,1.63
2019-05-03T14:33:14.135Z,1.63
2019-05-03T14:35:45.244Z,1.57
2019-05-03T14:38:15.116Z,1.70
2019-05-03T14:40:44.886Z,1.77
2019-05-03T14:43:15.426Z,1.50
2019-05-03T14:45:43.646Z,2.00
2019-05-03T14:48:15.066Z,2.10
2019-05-03T14:50:43.079Z,1.90
2019-05-03T14:53:14.632Z,1.77
2019-05-03T14:55:45.148Z,2.27
2019-05-03T14:58:17.683Z,2.27
2019-05-03T15:01:04.655Z,2.10
2019-05-03T15:03:32.286Z,2.20
2019-05-03T15:06:01.795Z,2.07
2019-05-03T15:08:31.190Z,2.27
2019-05-03T15:11:00.794Z,2.03
2019-05-03T15:13:30.110Z,2.07
2019-05-03T15:15:59.583Z,1.90
2019-05-03T15:18:29.220Z,2.00
2019-05-03T15:20:58.486Z,2.03
2019-05-03T15:23:27.808Z,1.77
2019-05-03T15:25:57.226Z,1.67
2019-05-03T15:28:26.543Z,1.47
2019-05-03T15:30:56.432Z,1.43
2019-05-03T15:33:25.831Z,1.40
2019-05-03T15:35:55.286Z,1.80
2019-05-03T15:38:24.472Z,1.90
2019-05-03T15:40:54.813Z,2.00
2019-05-03T15:43:28.584Z,1.90
2019-05-03T15:46:06.403Z,1.80
2019-05-03T15:48:36.698Z,2.20
2019-05-03T15:51:06.100Z,1.70
2019-05-03T15:53:35.523Z,1.60
2019-05-03T15:56:05.492Z,2.00
2019-05-03T15:58:35.092Z,1.80
2019-05-03T16:01:04.795Z,1.90
2019-05-03T16:03:35.751Z,2.35
2019-05-03T16:06:04.911Z,2.00
2019-05-03T16:08:34.335Z,2.42
2019-05-03T16:11:05.266Z,2.30
2019-05-03T16:13:35.107Z,2.10
2019-05-03T16:16:04.335Z,2.10
2019-05-03T16:18:35.073Z,2.20
2019-05-03T16:21:05.028Z,2.00
2019-05-03T16:23:33.618Z,2.05
2019-05-03T16:26:04.877Z,1.90
2019-05-03T16:28:36.050Z,1.92
2019-05-03T16:31:05.525Z,1.80
2019-05-03T16:33:35.086Z,1.87
2019-05-03T16:36:05.503Z,1.90
2019-05-03T16:38:35.473Z,2.10
2019-05-03T16:41:05.137Z,2.22
2019-05-03T16:43:34.856Z,1.85
2019-05-03T16:46:05.477Z,2.20
2019-05-03T16:48:35.184Z,2.42
2019-05-03T16:51:03.834Z,2.03
2019-05-03T16:53:34.884Z,2.00
2019-05-03T16:56:03.590Z,1.90
2019-05-03T16:58:35.173Z,1.70
2019-05-03T17:01:02.966Z,1.95
2019-05-03T17:03:45.428Z,2.00
2019-05-03T17:09:18.362Z,2.10
2019-05-03T17:11:48.038Z,1.98
2019-05-03T17:14:17.180Z,2.00
2019-05-03T17:16:47.657Z,1.80
2019-05-03T17:19:17.250Z,1.95
2019-05-03T17:21:46.958Z,2.20
2019-05-03T17:24:16.257Z,2.00
2019-05-03T17:26:45.724Z,1.83
2019-05-03T17:29:15.360Z,1.95
2019-05-03T17:31:45.053Z,1.80
2019-05-03T17:34:14.569Z,1.73
2019-05-03T17:36:45.021Z,1.58
2019-05-03T17:39:15.550Z,2.00
2019-05-03T17:41:50.478Z,1.95
2019-05-03T17:44:20.861Z,1.67
2019-05-03T17:46:50.553Z,1.95
2019-05-03T17:49:20.069Z,1.90
2019-05-03T17:51:55.572Z,2.15
2019-05-03T17:57:25.266Z,2.10
2019-05-03T17:59:56.018Z,2.30
2019-05-03T18:02:31.356Z,2.10
2019-05-03T18:05:06.200Z,2.00
2019-05-03T18:07:37.235Z,2.05
2019-05-03T18:10:07.423Z,2.80
2019-05-03T18:12:36.971Z,2.83
2019-05-03T18:15:07.491Z,2.70
2019-05-03T18:17:36.776Z,2.10
2019-05-03T18:20:06.531Z,2.28
2019-05-03T18:22:35.991Z,2.33
2019-05-03T18:25:06.044Z,2.17
2019-05-03T18:27:35.755Z,2.25
2019-05-03T18:30:06.288Z,3.80
2019-05-03T18:32:36.076Z,3.72
2019-05-03T18:35:05.384Z,4.40
2019-05-03T18:37:34.968Z,4.15
2019-05-03T18:40:04.988Z,4.12
2019-05-03T18:42:35.449Z,3.60
2019-05-03T18:45:08.268Z,3.95
2019-05-03T18:47:37.915Z,4.05
2019-05-03T18:50:08.154Z,4.10
2019-05-03T18:52:37.485Z,3.75
2019-05-03T18:55:07.184Z,4.30
2019-05-03T18:57:36.895Z,4.53
2019-05-03T19:00:08.223Z,5.18
2019-05-03T19:02:36.273Z,4.53
2019-05-03T19:05:06.395Z,4.57
2019-05-03T19:07:41.137Z,4.75
2019-05-03T19:10:10.914Z,4.57
2019-05-03T19:12:40.577Z,4.70
2019-05-03T19:15:10.448Z,4.47
2019-05-03T19:17:45.473Z,4.20
2019-05-03T19:20:15.587Z,4.20
2019-05-03T19:22:46.037Z,4.22
2019-05-03T19:25:15.492Z,4.32
2019-05-03T19:27:45.189Z,4.78
2019-05-03T19:30:14.940Z,4.70
2019-05-03T19:32:45.059Z,4.45
2019-05-03T19:35:15.734Z,4.60
2019-05-03T19:37:46.394Z,4.72
2019-05-03T19:40:14.490Z,5.35
2019-05-03T19:42:44.741Z,4.80
2019-05-03T19:45:15.227Z,4.57
2019-05-03T19:47:44.602Z,4.05
2019-05-03T19:50:15.539Z,4.60
2019-05-03T19:52:48.743Z,4.70
2019-05-03T19:55:17.945Z,4.80
2019-05-03T19:57:47.582Z,4.30
2019-05-03T20:00:17.302Z,4.60
2019-05-03T20:02:51.865Z,5.00
2019-05-03T20:08:25.341Z,4.50
2019-05-03T20:11:10.209Z,4.12
2019-05-03T20:13:39.515Z,4.15
2019-05-03T20:16:09.117Z,4.78
2019-05-03T20:18:38.423Z,4.65
2019-05-03T20:21:07.848Z,4.72
2019-05-03T20:23:37.138Z,4.57
2019-05-03T20:26:06.659Z,4.55
2019-05-03T20:28:36.155Z,4.50
2019-05-03T20:31:05.653Z,4.68
2019-05-03T20:33:35.254Z,4.40
2019-05-03T20:36:05.723Z,4.25
2019-05-03T20:38:35.260Z,4.35
2019-05-03T20:41:05.228Z,4.50
2019-05-03T20:43:36.463Z,4.72
2019-05-03T20:46:10.564Z,4.80
2019-05-03T20:48:38.854Z,4.65
2019-05-03T20:51:08.569Z,4.68
2019-05-03T20:53:38.184Z,4.50
2019-05-03T20:56:11.024Z,4.68
2019-05-03T20:58:41.108Z,4.75
2019-05-03T21:01:10.723Z,4.30
2019-05-03T21:03:40.296Z,5.07
2019-05-03T21:06:09.645Z,4.72
2019-05-03T21:08:49.613Z,4.30
2019-05-03T21:11:08.972Z,4.22
2019-05-03T21:13:42.002Z,4.53
2019-05-03T21:16:09.763Z,4.15
2019-05-03T21:18:39.649Z,4.30
2019-05-03T21:21:15.372Z,5.15
2019-05-03T21:26:37.871Z,5.20
2019-05-03T21:29:07.179Z,4.80
2019-05-03T21:31:36.483Z,4.90
2019-05-03T21:34:06.017Z,4.60
2019-05-03T21:36:35.211Z,4.45
2019-05-03T21:39:05.328Z,5.05
2019-05-03T21:41:35.015Z,4.30
2019-05-03T21:44:04.809Z,4.15
2019-05-03T21:46:37.643Z,4.05
2019-05-03T21:49:08.092Z,4.00
2019-05-03T21:51:37.633Z,4.07
2019-05-03T21:54:07.252Z,4.15
2019-05-03T21:56:36.755Z,3.95
2019-05-03T21:59:06.211Z,4.22
2019-05-03T22:01:37.501Z,4.47
2019-05-03T22:04:05.616Z,4.03
2019-05-03T22:06:35.174Z,3.87
2019-05-03T22:09:05.112Z,4.20
2019-05-03T22:11:34.983Z,3.65
2019-05-03T22:14:05.454Z,4.05
2019-05-03T22:16:35.763Z,4.37
2019-05-03T22:19:05.107Z,4.30
2019-05-03T22:21:39.598Z,3.78
2019-05-03T22:24:14.808Z,3.70
2019-05-03T22:26:49.923Z,4.22
2019-05-03T22:29:19.032Z,3.50
2019-05-03T22:31:48.479Z,3.78
2019-05-03T22:34:18.005Z,3.58
2019-05-03T22:36:47.263Z,4.03
2019-05-03T22:39:16.636Z,4.57
2019-05-03T22:41:45.848Z,4.72
2019-05-03T22:44:17.094Z,4.30
2019-05-03T22:46:46.092Z,4.97
2019-05-03T22:49:15.740Z,4.97
2019-05-03T22:51:45.456Z,4.93
2019-05-03T22:54:15.409Z,4.68
2019-05-03T22:56:44.821Z,4.78
2019-05-03T22:59:14.703Z,5.28
2019-05-03T23:01:45.496Z,4.57
2019-05-03T23:04:14.716Z,4.40
2019-05-03T23:06:46.676Z,4.75
2019-05-03T23:09:13.089Z,5.07
2019-05-03T23:11:44.575Z,5.53
2019-05-03T23:14:11.954Z,5.35
2019-05-03T23:16:41.486Z,5.18
2019-05-03T23:19:10.693Z,5.93
2019-05-03T23:21:51.367Z,5.70
2019-05-03T23:24:21.018Z,5.35
2019-05-03T23:26:50.629Z,6.18
2019-05-03T23:29:20.204Z,6.00
2019-05-03T23:31:49.804Z,5.80
2019-05-03T23:34:19.305Z,5.65
2019-05-03T23:36:49.456Z,5.95
2019-05-03T23:39:19.065Z,5.82
2019-05-03T23:41:48.559Z,5.40
2019-05-03T23:44:18.018Z,5.72
2019-05-03T23:46:50.790Z,5.87
2019-05-03T23:49:21.427Z,6.20
2019-05-03T23:51:51.246Z,5.93
2019-05-03T23:54:20.949Z,6.18
2019-05-03T23:56:50.264Z,5.80
2019-05-03T23:59:19.915Z,6.37
